SA188 FAOR-HTDA
Flight info
| Callsign | SA188 |
|---|---|
| Flight time | 3h 0m |
| Altitude | 37000 |
| Route | EGMEN1C EGMEN UQ2 EPSEK UM307 VBR UM310 BOTEN UNLIG1C |
| Aircraft | A320/M-SDE3FGHIRWY/LB1 |
Departure
| Time | 2026-04-17 11:15 |
|---|---|
| Airport | O.R. Tambo International Airport (FAOR) |
Arrival
| Time | 2026-04-17 14:16 |
|---|---|
| Airport | Julius Nyerere International Airport (HTDA) |
| Time | Latitude | Longitude | Altitude | Speed | Heading |
|---|---|---|---|---|---|
| 2026-04-17 10:56 | -26.13537 | 28.23435 | 5547 ft | 0 kts | 96° |
| 2026-04-17 11:07 | -26.13536 | 28.23423 | 5551 ft | 4 kts | 96° |
| 2026-04-17 11:07 | -26.13533 | 28.23394 | 5549 ft | 4 kts | 96° |
| 2026-04-17 11:07 | -26.13527 | 28.23368 | 5547 ft | 4 kts | 143° |
| 2026-04-17 11:07 | -26.13511 | 28.23363 | 5551 ft | 3 kts | 186° |
| 2026-04-17 11:08 | -26.13497 | 28.23365 | 5548 ft | 0 kts | 186° |
| 2026-04-17 11:10 | -26.13505 | 28.23364 | 5549 ft | 2 kts | 186° |
| 2026-04-17 11:10 | -26.13532 | 28.23361 | 5549 ft | 5 kts | 186° |
| 2026-04-17 11:11 | -26.13572 | 28.23356 | 5550 ft | 6 kts | 187° |
| 2026-04-17 11:11 | -26.13614 | 28.23350 | 5550 ft | 6 kts | 186° |
| 2026-04-17 11:11 | -26.13663 | 28.23345 | 5548 ft | 8 kts | 186° |
| 2026-04-17 11:11 | -26.13724 | 28.23338 | 5548 ft | 10 kts | 186° |
| 2026-04-17 11:12 | -26.13800 | 28.23329 | 5549 ft | 12 kts | 187° |
| 2026-04-17 11:12 | -26.13890 | 28.23303 | 5549 ft | 15 kts | 195° |
| 2026-04-17 11:12 | -26.13993 | 28.23272 | 5551 ft | 16 kts | 195° |
| 2026-04-17 11:12 | -26.14110 | 28.23235 | 5552 ft | 18 kts | 196° |
| 2026-04-17 11:13 | -26.14236 | 28.23199 | 5554 ft | 19 kts | 187° |
| 2026-04-17 11:13 | -26.14345 | 28.23223 | 5560 ft | 13 kts | 165° |
| 2026-04-17 11:13 | -26.14442 | 28.23252 | 5560 ft | 15 kts | 165° |
| 2026-04-17 11:13 | -26.14531 | 28.23277 | 5564 ft | 12 kts | 166° |
| 2026-04-17 11:14 | -26.14599 | 28.23317 | 5566 ft | 10 kts | 127° |
| 2026-04-17 11:14 | -26.14620 | 28.23392 | 5567 ft | 11 kts | 104° |
| 2026-04-17 11:14 | -26.14592 | 28.23452 | 5567 ft | 11 kts | 19° |
| 2026-04-17 11:14 | -26.14489 | 28.23484 | 5565 ft | 30 kts | 15° |
| 2026-04-17 11:15 | -26.14052 | 28.23618 | 5565 ft | 97 kts | 15° |
| 2026-04-17 11:15 | -26.13226 | 28.23872 | 5548 ft | 149 kts | 15° |
| 2026-04-17 11:15 | -26.12093 | 28.24223 | 5632 ft | 183 kts | 14° |
| 2026-04-17 11:15 | -26.10864 | 28.24614 | 6336 ft | 185 kts | 14° |
| 2026-04-17 11:16 | -26.09632 | 28.25015 | 6997 ft | 183 kts | 13° |
| 2026-04-17 11:16 | -26.08375 | 28.25436 | 7338 ft | 196 kts | 12° |
| 2026-04-17 11:16 | -26.06984 | 28.25854 | 7480 ft | 220 kts | 11° |
| 2026-04-17 11:16 | -26.05425 | 28.26313 | 7733 ft | 244 kts | 11° |
| 2026-04-17 11:17 | -26.03732 | 28.26814 | 8032 ft | 266 kts | 12° |
| 2026-04-17 11:17 | -26.01943 | 28.27481 | 8596 ft | 278 kts | 27° |
| 2026-04-17 11:17 | -26.00564 | 28.29031 | 9296 ft | 292 kts | 57° |
| 2026-04-17 11:17 | -25.99823 | 28.31159 | 10027 ft | 300 kts | 72° |
| 2026-04-17 11:18 | -25.99417 | 28.33475 | 10523 ft | 314 kts | 78° |
| 2026-04-17 11:18 | -25.99107 | 28.35969 | 10675 ft | 337 kts | 79° |
| 2026-04-17 11:18 | -25.98786 | 28.38600 | 11051 ft | 348 kts | 79° |
| 2026-04-17 11:18 | -25.98408 | 28.41277 | 11595 ft | 353 kts | 77° |
| 2026-04-17 11:19 | -25.97965 | 28.43971 | 12207 ft | 356 kts | 76° |
| 2026-04-17 11:19 | -25.97465 | 28.46681 | 12817 ft | 359 kts | 75° |
| 2026-04-17 11:19 | -25.96928 | 28.49403 | 13405 ft | 363 kts | 75° |
| 2026-04-17 11:19 | -25.96375 | 28.52143 | 13995 ft | 366 kts | 75° |
| 2026-04-17 11:20 | -25.95814 | 28.54911 | 14513 ft | 369 kts | 75° |
| 2026-04-17 11:20 | -25.95252 | 28.57709 | 15019 ft | 373 kts | 75° |
| 2026-04-17 11:20 | -25.94689 | 28.60537 | 15526 ft | 376 kts | 75° |
| 2026-04-17 11:20 | -25.94316 | 28.62424 | 15862 ft | 378 kts | 75° |
| 2026-04-17 11:21 | -25.93709 | 28.65274 | 16345 ft | 381 kts | 70° |
| 2026-04-17 11:21 | -25.92687 | 28.67981 | 16838 ft | 380 kts | 58° |
| 2026-04-17 11:21 | -25.91203 | 28.70406 | 17318 ft | 380 kts | 46° |
| 2026-04-17 11:21 | -25.89332 | 28.72465 | 17822 ft | 379 kts | 38° |
| 2026-04-17 11:22 | -25.87344 | 28.74415 | 18323 ft | 383 kts | 38° |
| 2026-04-17 11:22 | -25.85343 | 28.76384 | 18780 ft | 386 kts | 38° |
| 2026-04-17 11:22 | -25.83327 | 28.78374 | 19227 ft | 389 kts | 38° |
| 2026-04-17 11:22 | -25.81306 | 28.80372 | 19683 ft | 391 kts | 38° |
| 2026-04-17 11:23 | -25.79262 | 28.82388 | 20157 ft | 394 kts | 37° |
| 2026-04-17 11:23 | -25.77203 | 28.84414 | 20620 ft | 397 kts | 37° |
| 2026-04-17 11:23 | -25.75128 | 28.86455 | 21085 ft | 400 kts | 37° |
| 2026-04-17 11:23 | -25.73038 | 28.88510 | 21541 ft | 403 kts | 37° |
| 2026-04-17 11:24 | -25.70934 | 28.90579 | 21986 ft | 406 kts | 37° |
| 2026-04-17 11:24 | -25.68814 | 28.92663 | 22437 ft | 409 kts | 37° |
| 2026-04-17 11:24 | -25.66686 | 28.94756 | 22886 ft | 412 kts | 37° |
| 2026-04-17 11:24 | -25.64575 | 28.96860 | 23307 ft | 416 kts | 40° |
| 2026-04-17 11:25 | -25.62578 | 28.99201 | 23700 ft | 421 kts | 43° |
| 2026-04-17 11:25 | -25.60579 | 29.01581 | 24054 ft | 423 kts | 42° |
| 2026-04-17 11:25 | -25.58566 | 29.03973 | 24395 ft | 426 kts | 42° |
| 2026-04-17 11:25 | -25.56537 | 29.06376 | 24719 ft | 429 kts | 42° |
| 2026-04-17 11:26 | -25.54492 | 29.08794 | 25052 ft | 431 kts | 42° |
| 2026-04-17 11:26 | -25.52433 | 29.11227 | 25367 ft | 434 kts | 42° |
| 2026-04-17 11:26 | -25.50366 | 29.13673 | 25693 ft | 436 kts | 41° |
| 2026-04-17 11:26 | -25.48286 | 29.16136 | 26014 ft | 439 kts | 41° |
| 2026-04-17 11:27 | -25.46198 | 29.18606 | 26329 ft | 441 kts | 41° |
| 2026-04-17 11:27 | -25.44092 | 29.21092 | 26638 ft | 444 kts | 41° |
| 2026-04-17 11:27 | -25.41976 | 29.23597 | 26942 ft | 446 kts | 41° |
| 2026-04-17 11:27 | -25.39856 | 29.26122 | 27228 ft | 449 kts | 41° |
| 2026-04-17 11:28 | -25.37726 | 29.28667 | 27530 ft | 451 kts | 41° |
| 2026-04-17 11:28 | -25.35590 | 29.31219 | 27821 ft | 453 kts | 41° |
| 2026-04-17 11:28 | -25.33443 | 29.33782 | 28122 ft | 456 kts | 41° |
| 2026-04-17 11:28 | -25.31278 | 29.36359 | 28414 ft | 458 kts | 41° |
| 2026-04-17 11:29 | -25.29100 | 29.38944 | 28709 ft | 461 kts | 41° |
| 2026-04-17 11:29 | -25.26910 | 29.41540 | 28996 ft | 463 kts | 41° |
| 2026-04-17 11:29 | -25.24706 | 29.44155 | 29285 ft | 466 kts | 41° |
| 2026-04-17 11:29 | -25.22490 | 29.46786 | 29594 ft | 469 kts | 41° |
| 2026-04-17 11:30 | -25.20262 | 29.49425 | 29880 ft | 471 kts | 41° |
| 2026-04-17 11:30 | -25.18017 | 29.52082 | 30185 ft | 473 kts | 41° |
| 2026-04-17 11:30 | -25.15777 | 29.54735 | 30548 ft | 472 kts | 41° |
| 2026-04-17 11:30 | -25.13567 | 29.57354 | 30891 ft | 473 kts | 41° |
| 2026-04-17 11:31 | -25.11325 | 29.60011 | 31208 ft | 473 kts | 41° |
| 2026-04-17 11:31 | -25.09081 | 29.62668 | 31543 ft | 473 kts | 41° |
| 2026-04-17 11:31 | -25.06833 | 29.65328 | 31864 ft | 473 kts | 41° |
| 2026-04-17 11:31 | -25.04588 | 29.67980 | 32204 ft | 473 kts | 40° |
| 2026-04-17 11:32 | -25.02338 | 29.70634 | 32555 ft | 474 kts | 40° |
| 2026-04-17 11:32 | -25.00084 | 29.73292 | 32905 ft | 474 kts | 40° |
| 2026-04-17 11:32 | -24.97835 | 29.75940 | 33253 ft | 474 kts | 40° |
| 2026-04-17 11:32 | -24.95578 | 29.78596 | 33593 ft | 474 kts | 40° |
| 2026-04-17 11:33 | -24.93323 | 29.81248 | 33935 ft | 474 kts | 40° |
| 2026-04-17 11:33 | -24.91064 | 29.83904 | 34224 ft | 475 kts | 40° |
| 2026-04-17 11:33 | -24.88804 | 29.86561 | 34461 ft | 476 kts | 40° |
| 2026-04-17 11:33 | -24.86531 | 29.89232 | 34727 ft | 477 kts | 40° |
| 2026-04-17 11:34 | -24.84261 | 29.91898 | 34979 ft | 477 kts | 40° |
| 2026-04-17 11:34 | -24.81996 | 29.94563 | 35250 ft | 477 kts | 40° |
| 2026-04-17 11:34 | -24.79764 | 29.97203 | 35470 ft | 477 kts | 40° |
| 2026-04-17 11:34 | -24.77478 | 29.99916 | 35712 ft | 478 kts | 40° |
| 2026-04-17 11:35 | -24.75221 | 30.02597 | 35973 ft | 477 kts | 40° |
| 2026-04-17 11:35 | -24.72967 | 30.05273 | 36235 ft | 477 kts | 40° |
| 2026-04-17 11:35 | -24.70709 | 30.07952 | 36450 ft | 477 kts | 40° |
| 2026-04-17 11:35 | -24.68449 | 30.10634 | 36626 ft | 478 kts | 40° |
| 2026-04-17 11:36 | -24.66194 | 30.13305 | 36852 ft | 476 kts | 40° |
| 2026-04-17 11:36 | -24.63936 | 30.15972 | 37065 ft | 477 kts | 40° |
| 2026-04-17 11:36 | -24.59396 | 30.21334 | 37119 ft | 482 kts | 40° |
| 2026-04-17 11:37 | -24.54885 | 30.26735 | 37126 ft | 483 kts | 41° |
| 2026-04-17 11:37 | -24.50357 | 30.32191 | 37111 ft | 483 kts | 41° |
| 2026-04-17 11:38 | -24.45821 | 30.37645 | 37114 ft | 483 kts | 41° |
| 2026-04-17 11:38 | -24.41272 | 30.43078 | 37085 ft | 484 kts | 41° |
| 2026-04-17 11:39 | -24.36706 | 30.48523 | 37099 ft | 485 kts | 41° |
| 2026-04-17 11:39 | -24.32135 | 30.53962 | 37088 ft | 485 kts | 41° |
| 2026-04-17 11:40 | -24.27565 | 30.59408 | 37096 ft | 485 kts | 41° |
| 2026-04-17 11:40 | -24.23026 | 30.64820 | 37083 ft | 485 kts | 41° |
| 2026-04-17 11:41 | -24.18454 | 30.70255 | 37072 ft | 485 kts | 41° |
| 2026-04-17 11:41 | -24.13884 | 30.75682 | 37057 ft | 484 kts | 41° |
| 2026-04-17 11:42 | -24.09314 | 30.81104 | 37056 ft | 484 kts | 41° |
| 2026-04-17 11:42 | -24.04735 | 30.86526 | 37038 ft | 485 kts | 41° |
| 2026-04-17 11:43 | -24.00153 | 30.91941 | 37045 ft | 485 kts | 41° |
| 2026-04-17 11:43 | -23.95578 | 30.97353 | 37029 ft | 485 kts | 41° |
| 2026-04-17 11:44 | -23.90999 | 31.02771 | 37032 ft | 485 kts | 41° |
| 2026-04-17 11:44 | -23.86409 | 31.08183 | 37025 ft | 485 kts | 41° |
| 2026-04-17 11:45 | -23.81849 | 31.13550 | 37027 ft | 485 kts | 41° |
| 2026-04-17 11:45 | -23.77247 | 31.18960 | 37017 ft | 485 kts | 41° |
| 2026-04-17 11:46 | -23.72650 | 31.24361 | 37014 ft | 485 kts | 41° |
| 2026-04-17 11:46 | -23.68058 | 31.29758 | 36991 ft | 485 kts | 41° |
| 2026-04-17 11:47 | -23.63459 | 31.35153 | 36989 ft | 485 kts | 42° |
| 2026-04-17 11:47 | -23.58856 | 31.40544 | 36992 ft | 485 kts | 42° |
| 2026-04-17 11:48 | -23.54244 | 31.45935 | 36984 ft | 486 kts | 42° |
| 2026-04-17 11:48 | -23.49641 | 31.51321 | 36987 ft | 486 kts | 41° |
| 2026-04-17 11:49 | -23.44992 | 31.56593 | 36968 ft | 481 kts | 35° |
| 2026-04-17 11:49 | -23.39811 | 31.61160 | 36970 ft | 479 kts | 33° |
| 2026-04-17 11:50 | -23.34615 | 31.65703 | 36961 ft | 479 kts | 33° |
| 2026-04-17 11:50 | -23.29418 | 31.70246 | 36948 ft | 479 kts | 33° |
| 2026-04-17 11:51 | -23.24217 | 31.74790 | 36945 ft | 479 kts | 33° |
| 2026-04-17 11:51 | -23.19022 | 31.79334 | 36955 ft | 479 kts | 33° |
| 2026-04-17 11:52 | -23.13823 | 31.83878 | 36938 ft | 479 kts | 34° |
| 2026-04-17 11:52 | -23.08616 | 31.88417 | 36935 ft | 480 kts | 33° |
| 2026-04-17 11:53 | -23.03406 | 31.92945 | 36932 ft | 480 kts | 33° |
| 2026-04-17 11:53 | -22.98196 | 31.97480 | 36914 ft | 480 kts | 33° |
| 2026-04-17 11:54 | -22.93005 | 32.02044 | 36917 ft | 480 kts | 35° |
| 2026-04-17 11:54 | -22.87882 | 32.06705 | 36922 ft | 481 kts | 35° |
| 2026-04-17 11:55 | -22.82756 | 32.11372 | 36923 ft | 481 kts | 35° |
| 2026-04-17 11:55 | -22.77648 | 32.15986 | 36924 ft | 481 kts | 35° |
| 2026-04-17 11:56 | -22.72465 | 32.20640 | 36920 ft | 481 kts | 35° |
| 2026-04-17 11:56 | -22.67343 | 32.25235 | 36922 ft | 481 kts | 35° |
| 2026-04-17 11:57 | -22.62193 | 32.29862 | 36913 ft | 481 kts | 35° |
| 2026-04-17 11:57 | -22.57041 | 32.34482 | 36918 ft | 481 kts | 35° |
| 2026-04-17 11:58 | -22.51884 | 32.39099 | 36917 ft | 481 kts | 35° |
| 2026-04-17 11:58 | -22.46728 | 32.43716 | 36920 ft | 481 kts | 36° |
| 2026-04-17 11:59 | -22.41572 | 32.48336 | 36919 ft | 481 kts | 35° |
| 2026-04-17 11:59 | -22.36417 | 32.52945 | 36919 ft | 481 kts | 35° |
| 2026-04-17 12:00 | -22.31255 | 32.57554 | 36922 ft | 481 kts | 35° |
| 2026-04-17 12:00 | -22.26086 | 32.62156 | 36914 ft | 481 kts | 36° |
| 2026-04-17 12:01 | -22.20920 | 32.66756 | 36918 ft | 482 kts | 36° |
| 2026-04-17 12:01 | -22.15745 | 32.71359 | 36917 ft | 482 kts | 36° |
| 2026-04-17 12:02 | -22.10567 | 32.75958 | 36918 ft | 482 kts | 36° |
| 2026-04-17 12:02 | -22.05425 | 32.80523 | 36922 ft | 482 kts | 36° |
| 2026-04-17 12:03 | -22.00262 | 32.85152 | 36923 ft | 482 kts | 36° |
| 2026-04-17 12:03 | -21.95142 | 32.89824 | 36917 ft | 482 kts | 37° |
| 2026-04-17 12:04 | -21.90018 | 32.94496 | 36918 ft | 482 kts | 37° |
| 2026-04-17 12:04 | -21.84880 | 32.99141 | 36922 ft | 482 kts | 36° |
| 2026-04-17 12:05 | -21.79738 | 33.03784 | 36927 ft | 482 kts | 37° |
| 2026-04-17 12:05 | -21.74594 | 33.08423 | 36927 ft | 482 kts | 36° |
| 2026-04-17 12:06 | -21.70298 | 33.12245 | 36925 ft | 482 kts | 36° |
| 2026-04-17 12:06 | -21.65115 | 33.16828 | 36925 ft | 482 kts | 36° |
| 2026-04-17 12:07 | -21.59938 | 33.21413 | 36924 ft | 482 kts | 36° |
| 2026-04-17 12:07 | -21.54764 | 33.26008 | 36923 ft | 483 kts | 36° |
| 2026-04-17 12:08 | -21.49583 | 33.30596 | 36926 ft | 483 kts | 36° |
| 2026-04-17 12:08 | -21.44395 | 33.35185 | 36927 ft | 483 kts | 36° |
| 2026-04-17 12:09 | -21.39214 | 33.39766 | 36933 ft | 483 kts | 36° |
| 2026-04-17 12:09 | -21.34020 | 33.44348 | 36933 ft | 483 kts | 36° |
| 2026-04-17 12:10 | -21.28833 | 33.48919 | 36927 ft | 483 kts | 36° |
| 2026-04-17 12:10 | -21.23684 | 33.53470 | 36925 ft | 483 kts | 36° |
| 2026-04-17 12:11 | -21.18501 | 33.58044 | 36928 ft | 482 kts | 36° |
| 2026-04-17 12:12 | -21.10708 | 33.64878 | 36931 ft | 482 kts | 36° |
| 2026-04-17 12:12 | -21.05518 | 33.69442 | 36932 ft | 482 kts | 36° |
| 2026-04-17 12:13 | -21.00332 | 33.74003 | 36927 ft | 483 kts | 36° |
| 2026-04-17 12:13 | -20.95130 | 33.78561 | 36927 ft | 483 kts | 36° |
| 2026-04-17 12:14 | -20.89930 | 33.83106 | 36923 ft | 483 kts | 36° |
| 2026-04-17 12:14 | -20.84735 | 33.87654 | 36928 ft | 483 kts | 36° |
| 2026-04-17 12:15 | -20.79536 | 33.92204 | 36929 ft | 483 kts | 36° |
| 2026-04-17 12:15 | -20.74334 | 33.96744 | 36926 ft | 483 kts | 36° |
| 2026-04-17 12:16 | -20.69149 | 34.01303 | 36923 ft | 483 kts | 38° |
| 2026-04-17 12:16 | -20.64144 | 34.06044 | 36924 ft | 484 kts | 40° |
| 2026-04-17 12:17 | -20.59183 | 34.10906 | 36927 ft | 484 kts | 40° |
| 2026-04-17 12:17 | -20.54192 | 34.15738 | 36924 ft | 484 kts | 39° |
| 2026-04-17 12:18 | -20.49165 | 34.20523 | 36927 ft | 484 kts | 39° |
| 2026-04-17 12:18 | -20.44123 | 34.25283 | 36927 ft | 484 kts | 39° |
| 2026-04-17 12:19 | -20.39091 | 34.30051 | 36927 ft | 484 kts | 39° |
| 2026-04-17 12:19 | -20.34063 | 34.34831 | 36927 ft | 484 kts | 39° |
| 2026-04-17 12:20 | -20.29032 | 34.39607 | 36928 ft | 484 kts | 39° |
| 2026-04-17 12:20 | -20.23995 | 34.44374 | 36931 ft | 484 kts | 39° |
| 2026-04-17 12:21 | -20.18957 | 34.49141 | 36928 ft | 484 kts | 40° |
| 2026-04-17 12:21 | -20.13929 | 34.53913 | 36931 ft | 484 kts | 40° |
| 2026-04-17 12:22 | -20.08887 | 34.58683 | 36926 ft | 484 kts | 40° |
| 2026-04-17 12:22 | -20.03845 | 34.63436 | 36932 ft | 484 kts | 39° |
| 2026-04-17 12:23 | -19.98800 | 34.68182 | 36937 ft | 484 kts | 39° |
| 2026-04-17 12:23 | -19.93756 | 34.72942 | 36935 ft | 484 kts | 40° |
| 2026-04-17 12:24 | -19.88721 | 34.77701 | 36931 ft | 484 kts | 40° |
| 2026-04-17 12:24 | -19.83673 | 34.82450 | 36922 ft | 485 kts | 40° |
| 2026-04-17 12:25 | -19.78344 | 34.86789 | 36926 ft | 481 kts | 26° |
| 2026-04-17 12:25 | -19.72203 | 34.89440 | 36924 ft | 476 kts | 15° |
| 2026-04-17 12:26 | -19.65922 | 34.91673 | 36928 ft | 476 kts | 15° |
| 2026-04-17 12:26 | -19.59677 | 34.93904 | 36922 ft | 476 kts | 15° |
| 2026-04-17 12:27 | -19.53385 | 34.96141 | 36923 ft | 477 kts | 15° |
| 2026-04-17 12:27 | -19.47099 | 34.98377 | 36923 ft | 477 kts | 15° |
| 2026-04-17 12:28 | -19.40807 | 35.00623 | 36923 ft | 477 kts | 15° |
| 2026-04-17 12:28 | -19.34508 | 35.02867 | 36919 ft | 477 kts | 15° |
| 2026-04-17 12:29 | -19.28202 | 35.05105 | 36921 ft | 478 kts | 15° |
| 2026-04-17 12:29 | -19.21934 | 35.07323 | 36915 ft | 478 kts | 16° |
| 2026-04-17 12:30 | -19.15622 | 35.09559 | 36922 ft | 478 kts | 16° |
| 2026-04-17 12:30 | -19.09311 | 35.11800 | 36924 ft | 478 kts | 16° |
| 2026-04-17 12:31 | -19.03002 | 35.14037 | 36925 ft | 478 kts | 16° |
| 2026-04-17 12:31 | -18.96683 | 35.16269 | 36927 ft | 478 kts | 15° |
| 2026-04-17 12:32 | -18.90368 | 35.18499 | 36922 ft | 478 kts | 16° |
| 2026-04-17 12:32 | -18.84057 | 35.20729 | 36924 ft | 478 kts | 16° |
| 2026-04-17 12:33 | -18.77743 | 35.22957 | 36925 ft | 478 kts | 16° |
| 2026-04-17 12:33 | -18.71428 | 35.25187 | 36927 ft | 478 kts | 16° |
| 2026-04-17 12:34 | -18.65107 | 35.27410 | 36923 ft | 479 kts | 16° |
| 2026-04-17 12:34 | -18.58788 | 35.29630 | 36917 ft | 479 kts | 16° |
| 2026-04-17 12:35 | -18.52496 | 35.31852 | 36917 ft | 479 kts | 16° |
| 2026-04-17 12:35 | -18.46171 | 35.34088 | 36918 ft | 480 kts | 16° |
| 2026-04-17 12:37 | -18.20846 | 35.42996 | 36919 ft | 480 kts | 16° |
| 2026-04-17 12:38 | -18.14512 | 35.45220 | 36920 ft | 480 kts | 16° |
| 2026-04-17 12:38 | -18.08181 | 35.47449 | 36921 ft | 480 kts | 16° |
| 2026-04-17 12:39 | -18.01842 | 35.49663 | 36914 ft | 480 kts | 16° |
| 2026-04-17 12:39 | -17.95506 | 35.51869 | 36914 ft | 480 kts | 17° |
| 2026-04-17 12:40 | -17.89171 | 35.54089 | 36915 ft | 480 kts | 17° |
| 2026-04-17 12:40 | -17.82830 | 35.56311 | 36916 ft | 481 kts | 17° |
| 2026-04-17 12:41 | -17.76482 | 35.58529 | 36924 ft | 481 kts | 17° |
| 2026-04-17 12:41 | -17.70130 | 35.60742 | 36924 ft | 481 kts | 17° |
| 2026-04-17 12:42 | -17.63779 | 35.62953 | 36934 ft | 481 kts | 17° |
| 2026-04-17 12:42 | -17.57467 | 35.65153 | 36934 ft | 481 kts | 17° |
| 2026-04-17 12:43 | -17.51116 | 35.67367 | 36945 ft | 481 kts | 17° |
| 2026-04-17 12:43 | -17.44765 | 35.69582 | 36945 ft | 481 kts | 17° |
| 2026-04-17 12:44 | -17.38413 | 35.71785 | 36951 ft | 481 kts | 17° |
| 2026-04-17 12:44 | -17.32061 | 35.73983 | 36953 ft | 481 kts | 17° |
| 2026-04-17 12:45 | -17.25712 | 35.76183 | 36961 ft | 481 kts | 17° |
| 2026-04-17 12:45 | -17.19351 | 35.78392 | 36956 ft | 481 kts | 17° |
| 2026-04-17 12:46 | -17.12995 | 35.80604 | 36957 ft | 482 kts | 17° |
| 2026-04-17 12:46 | -17.06632 | 35.82801 | 36955 ft | 482 kts | 17° |
| 2026-04-17 12:47 | -17.00263 | 35.85001 | 36958 ft | 482 kts | 17° |
| 2026-04-17 12:47 | -16.93893 | 35.87206 | 36963 ft | 482 kts | 17° |
| 2026-04-17 12:48 | -16.87522 | 35.89410 | 36964 ft | 482 kts | 17° |
| 2026-04-17 12:48 | -16.81149 | 35.91610 | 36967 ft | 482 kts | 17° |
| 2026-04-17 12:49 | -16.74812 | 35.93798 | 36970 ft | 482 kts | 17° |
| 2026-04-17 12:49 | -16.68437 | 35.96000 | 36971 ft | 482 kts | 17° |
| 2026-04-17 12:50 | -16.62067 | 35.98195 | 36972 ft | 482 kts | 17° |
| 2026-04-17 12:50 | -16.55696 | 36.00397 | 36981 ft | 482 kts | 17° |
| 2026-04-17 12:51 | -16.50399 | 36.02220 | 36970 ft | 482 kts | 17° |
| 2026-04-17 12:51 | -16.44022 | 36.04397 | 36978 ft | 482 kts | 17° |
| 2026-04-17 12:52 | -16.37647 | 36.06570 | 36977 ft | 482 kts | 17° |
| 2026-04-17 12:52 | -16.31280 | 36.08757 | 36982 ft | 482 kts | 18° |
| 2026-04-17 12:53 | -16.24913 | 36.10951 | 36981 ft | 482 kts | 18° |
| 2026-04-17 12:53 | -16.18538 | 36.13138 | 36987 ft | 482 kts | 18° |
| 2026-04-17 12:54 | -16.12209 | 36.15305 | 36993 ft | 482 kts | 18° |
| 2026-04-17 12:54 | -16.05836 | 36.17485 | 36997 ft | 482 kts | 18° |
| 2026-04-17 12:55 | -15.99471 | 36.19660 | 36997 ft | 481 kts | 18° |
| 2026-04-17 12:55 | -15.93101 | 36.21827 | 37003 ft | 481 kts | 17° |
| 2026-04-17 12:56 | -15.86724 | 36.23954 | 37016 ft | 481 kts | 17° |
| 2026-04-17 12:56 | -15.80353 | 36.26076 | 37004 ft | 481 kts | 18° |
| 2026-04-17 12:57 | -15.73982 | 36.28205 | 37004 ft | 481 kts | 18° |
| 2026-04-17 12:57 | -15.67605 | 36.30335 | 37010 ft | 481 kts | 18° |
| 2026-04-17 12:58 | -15.61229 | 36.32471 | 37010 ft | 482 kts | 18° |
| 2026-04-17 12:58 | -15.54849 | 36.34604 | 37018 ft | 482 kts | 18° |
| 2026-04-17 12:59 | -15.48468 | 36.36731 | 37008 ft | 481 kts | 18° |
| 2026-04-17 12:59 | -15.42095 | 36.38862 | 37018 ft | 481 kts | 18° |
| 2026-04-17 13:00 | -15.35714 | 36.40992 | 37003 ft | 481 kts | 18° |
| 2026-04-17 13:00 | -15.29336 | 36.43106 | 37008 ft | 481 kts | 17° |
| 2026-04-17 13:01 | -15.22953 | 36.45219 | 36997 ft | 482 kts | 18° |
| 2026-04-17 13:01 | -15.16570 | 36.47347 | 36991 ft | 481 kts | 18° |
| 2026-04-17 13:02 | -15.10186 | 36.49471 | 37000 ft | 482 kts | 18° |
| 2026-04-17 13:02 | -15.03848 | 36.51573 | 36998 ft | 482 kts | 18° |
| 2026-04-17 13:03 | -14.97461 | 36.53690 | 36983 ft | 482 kts | 18° |
| 2026-04-17 13:03 | -14.91076 | 36.55811 | 36982 ft | 482 kts | 18° |
| 2026-04-17 13:04 | -14.84690 | 36.57930 | 36964 ft | 482 kts | 18° |
| 2026-04-17 13:04 | -14.78303 | 36.60046 | 36972 ft | 482 kts | 18° |
| 2026-04-17 13:05 | -14.71914 | 36.62164 | 36965 ft | 482 kts | 18° |
| 2026-04-17 13:05 | -14.65528 | 36.64277 | 36956 ft | 482 kts | 18° |
| 2026-04-17 13:06 | -14.59148 | 36.66386 | 36949 ft | 481 kts | 18° |
| 2026-04-17 13:06 | -14.52768 | 36.68496 | 36953 ft | 481 kts | 18° |
| 2026-04-17 13:07 | -14.46392 | 36.70600 | 36942 ft | 481 kts | 18° |
| 2026-04-17 13:07 | -14.40013 | 36.72707 | 36941 ft | 481 kts | 18° |
| 2026-04-17 13:08 | -14.33645 | 36.74810 | 36951 ft | 480 kts | 18° |
| 2026-04-17 13:08 | -14.27273 | 36.76911 | 36950 ft | 480 kts | 18° |
| 2026-04-17 13:09 | -14.20907 | 36.79006 | 36951 ft | 480 kts | 18° |
| 2026-04-17 13:09 | -14.14579 | 36.81085 | 36956 ft | 480 kts | 18° |
| 2026-04-17 13:10 | -14.08212 | 36.83177 | 36947 ft | 480 kts | 18° |
| 2026-04-17 13:10 | -14.01856 | 36.85272 | 36950 ft | 479 kts | 18° |
| 2026-04-17 13:11 | -13.95508 | 36.87386 | 36967 ft | 479 kts | 18° |
| 2026-04-17 13:11 | -13.89170 | 36.89514 | 36997 ft | 479 kts | 18° |
| 2026-04-17 13:12 | -13.82840 | 36.91643 | 36989 ft | 478 kts | 18° |
| 2026-04-17 13:12 | -13.73338 | 36.94823 | 37021 ft | 478 kts | 18° |
| 2026-04-17 13:13 | -13.67007 | 36.96940 | 37017 ft | 478 kts | 18° |
| 2026-04-17 13:13 | -13.60686 | 36.99052 | 37025 ft | 478 kts | 18° |
| 2026-04-17 13:14 | -13.54362 | 37.01163 | 37021 ft | 478 kts | 18° |
| 2026-04-17 13:14 | -13.48073 | 37.03260 | 37021 ft | 478 kts | 18° |
| 2026-04-17 13:15 | -13.41752 | 37.05363 | 37011 ft | 477 kts | 18° |
| 2026-04-17 13:15 | -13.35432 | 37.07467 | 37004 ft | 477 kts | 18° |
| 2026-04-17 13:16 | -13.29121 | 37.09577 | 37002 ft | 477 kts | 18° |
| 2026-04-17 13:16 | -13.22808 | 37.11677 | 36994 ft | 477 kts | 18° |
| 2026-04-17 13:17 | -13.16493 | 37.13769 | 36999 ft | 477 kts | 18° |
| 2026-04-17 13:17 | -13.10179 | 37.15866 | 36981 ft | 476 kts | 18° |
| 2026-04-17 13:18 | -13.03872 | 37.17964 | 36983 ft | 476 kts | 18° |
| 2026-04-17 13:18 | -12.97568 | 37.20057 | 36976 ft | 476 kts | 18° |
| 2026-04-17 13:19 | -12.91267 | 37.22149 | 36973 ft | 476 kts | 18° |
| 2026-04-17 13:19 | -12.84966 | 37.24246 | 36969 ft | 476 kts | 18° |
| 2026-04-17 13:20 | -12.78674 | 37.26344 | 36973 ft | 475 kts | 18° |
| 2026-04-17 13:20 | -12.72410 | 37.28498 | 36966 ft | 474 kts | 18° |
| 2026-04-17 13:21 | -12.66162 | 37.30664 | 36957 ft | 474 kts | 19° |
| 2026-04-17 13:21 | -12.59920 | 37.32825 | 36958 ft | 474 kts | 18° |
| 2026-04-17 13:22 | -12.53668 | 37.34963 | 36943 ft | 473 kts | 18° |
| 2026-04-17 13:22 | -12.47466 | 37.37079 | 36948 ft | 473 kts | 18° |
| 2026-04-17 13:23 | -12.41226 | 37.39217 | 36953 ft | 473 kts | 18° |
| 2026-04-17 13:23 | -12.34994 | 37.41357 | 36954 ft | 472 kts | 18° |
| 2026-04-17 13:24 | -12.28767 | 37.43493 | 36950 ft | 472 kts | 18° |
| 2026-04-17 13:24 | -12.22532 | 37.45629 | 36950 ft | 472 kts | 18° |
| 2026-04-17 13:25 | -12.16301 | 37.47753 | 36948 ft | 472 kts | 18° |
| 2026-04-17 13:25 | -12.10069 | 37.49877 | 36949 ft | 472 kts | 18° |
| 2026-04-17 13:26 | -12.03841 | 37.52004 | 36947 ft | 472 kts | 18° |
| 2026-04-17 13:26 | -11.97615 | 37.54132 | 36944 ft | 471 kts | 18° |
| 2026-04-17 13:27 | -11.91393 | 37.56263 | 36941 ft | 471 kts | 18° |
| 2026-04-17 13:27 | -11.85183 | 37.58388 | 36945 ft | 471 kts | 18° |
| 2026-04-17 13:28 | -11.78972 | 37.60496 | 36940 ft | 470 kts | 18° |
| 2026-04-17 13:28 | -11.72767 | 37.62610 | 36937 ft | 470 kts | 18° |
| 2026-04-17 13:29 | -11.66563 | 37.64728 | 36930 ft | 470 kts | 18° |
| 2026-04-17 13:29 | -11.60360 | 37.66826 | 36926 ft | 470 kts | 17° |
| 2026-04-17 13:30 | -11.54139 | 37.68861 | 36928 ft | 469 kts | 17° |
| 2026-04-17 13:30 | -11.47912 | 37.70878 | 36930 ft | 469 kts | 17° |
| 2026-04-17 13:31 | -11.41696 | 37.72904 | 36929 ft | 469 kts | 17° |
| 2026-04-17 13:31 | -11.35531 | 37.74927 | 36929 ft | 468 kts | 17° |
| 2026-04-17 13:32 | -11.29327 | 37.76964 | 36926 ft | 468 kts | 17° |
| 2026-04-17 13:32 | -11.23132 | 37.78999 | 36929 ft | 467 kts | 17° |
| 2026-04-17 13:33 | -11.16942 | 37.81025 | 36927 ft | 467 kts | 17° |
| 2026-04-17 13:33 | -11.10757 | 37.83040 | 36925 ft | 467 kts | 17° |
| 2026-04-17 13:34 | -11.04572 | 37.85054 | 36928 ft | 466 kts | 17° |
| 2026-04-17 13:34 | -10.98394 | 37.87073 | 36925 ft | 466 kts | 16° |
| 2026-04-17 13:35 | -10.93254 | 37.88752 | 36922 ft | 466 kts | 16° |
| 2026-04-17 13:35 | -10.87077 | 37.90780 | 36921 ft | 466 kts | 16° |
| 2026-04-17 13:36 | -10.80890 | 37.92794 | 36924 ft | 466 kts | 16° |
| 2026-04-17 13:36 | -10.74713 | 37.94808 | 36924 ft | 466 kts | 16° |
| 2026-04-17 13:37 | -10.68536 | 37.96826 | 36926 ft | 466 kts | 15° |
| 2026-04-17 13:37 | -10.62349 | 37.98842 | 36927 ft | 466 kts | 15° |
| 2026-04-17 13:38 | -10.56170 | 38.00852 | 36928 ft | 466 kts | 15° |
| 2026-04-17 13:38 | -10.49982 | 38.02861 | 36927 ft | 466 kts | 15° |
| 2026-04-17 13:39 | -10.43805 | 38.04874 | 36929 ft | 466 kts | 15° |
| 2026-04-17 13:39 | -10.37625 | 38.06887 | 36924 ft | 466 kts | 15° |
| 2026-04-17 13:40 | -10.31443 | 38.08898 | 36932 ft | 466 kts | 15° |
| 2026-04-17 13:40 | -10.25306 | 38.10888 | 36932 ft | 466 kts | 15° |
| 2026-04-17 13:41 | -10.19130 | 38.12897 | 36930 ft | 466 kts | 15° |
| 2026-04-17 13:41 | -10.12961 | 38.14899 | 36930 ft | 465 kts | 15° |
| 2026-04-17 13:42 | -10.06794 | 38.16902 | 36934 ft | 465 kts | 15° |
| 2026-04-17 13:42 | -10.00635 | 38.18906 | 36937 ft | 465 kts | 15° |
| 2026-04-17 13:43 | -9.94479 | 38.20902 | 36936 ft | 464 kts | 15° |
| 2026-04-17 13:43 | -9.88337 | 38.22890 | 36936 ft | 463 kts | 15° |
| 2026-04-17 13:44 | -9.82204 | 38.24881 | 36938 ft | 462 kts | 15° |
| 2026-04-17 13:44 | -9.76080 | 38.26860 | 36930 ft | 462 kts | 15° |
| 2026-04-17 13:45 | -9.69961 | 38.28839 | 36933 ft | 461 kts | 15° |
| 2026-04-17 13:45 | -9.63854 | 38.30817 | 36937 ft | 461 kts | 15° |
| 2026-04-17 13:46 | -9.57745 | 38.32793 | 36939 ft | 461 kts | 15° |
| 2026-04-17 13:46 | -9.51645 | 38.34774 | 36939 ft | 460 kts | 15° |
| 2026-04-17 13:47 | -9.45538 | 38.36749 | 36931 ft | 460 kts | 15° |
| 2026-04-17 13:47 | -9.39440 | 38.38717 | 36938 ft | 460 kts | 15° |
| 2026-04-17 13:48 | -9.33346 | 38.40688 | 36935 ft | 459 kts | 15° |
| 2026-04-17 13:48 | -9.27261 | 38.42661 | 36941 ft | 459 kts | 15° |
| 2026-04-17 13:49 | -9.21209 | 38.44615 | 36941 ft | 459 kts | 15° |
| 2026-04-17 13:49 | -9.15125 | 38.46575 | 36934 ft | 459 kts | 15° |
| 2026-04-17 13:50 | -9.09037 | 38.48535 | 36930 ft | 459 kts | 15° |
| 2026-04-17 13:50 | -9.02955 | 38.50497 | 36931 ft | 459 kts | 15° |
| 2026-04-17 13:51 | -8.96874 | 38.52465 | 36613 ft | 459 kts | 15° |
| 2026-04-17 13:51 | -8.93833 | 38.53448 | 36322 ft | 458 kts | 15° |
| 2026-04-17 13:51 | -8.90794 | 38.54427 | 36026 ft | 459 kts | 15° |
| 2026-04-17 13:52 | -8.87754 | 38.55405 | 35731 ft | 457 kts | 15° |
| 2026-04-17 13:52 | -8.84735 | 38.56376 | 35447 ft | 454 kts | 15° |
| 2026-04-17 13:52 | -8.81732 | 38.57340 | 35169 ft | 452 kts | 15° |
| 2026-04-17 13:52 | -8.78739 | 38.58298 | 34885 ft | 450 kts | 15° |
| 2026-04-17 13:53 | -8.75760 | 38.59255 | 34609 ft | 448 kts | 15° |
| 2026-04-17 13:53 | -8.72793 | 38.60211 | 34340 ft | 446 kts | 15° |
| 2026-04-17 13:53 | -8.69843 | 38.61164 | 34038 ft | 445 kts | 15° |
| 2026-04-17 13:53 | -8.66899 | 38.62117 | 33637 ft | 442 kts | 15° |
| 2026-04-17 13:54 | -8.61085 | 38.63997 | 32830 ft | 435 kts | 15° |
| 2026-04-17 13:54 | -8.58210 | 38.64920 | 32432 ft | 432 kts | 15° |
| 2026-04-17 13:55 | -8.52513 | 38.66744 | 31538 ft | 427 kts | 15° |
| 2026-04-17 13:55 | -8.49686 | 38.67650 | 31080 ft | 425 kts | 15° |
| 2026-04-17 13:55 | -8.44036 | 38.69344 | 30182 ft | 421 kts | 13° |
| 2026-04-17 13:56 | -8.38415 | 38.70791 | 29258 ft | 416 kts | 12° |
| 2026-04-17 13:56 | -8.35614 | 38.71491 | 28826 ft | 413 kts | 12° |
| 2026-04-17 13:56 | -8.32831 | 38.72194 | 28411 ft | 411 kts | 12° |
| 2026-04-17 13:57 | -8.30071 | 38.72906 | 28000 ft | 408 kts | 13° |
| 2026-04-17 13:57 | -8.27325 | 38.73624 | 27576 ft | 406 kts | 13° |
| 2026-04-17 13:57 | -8.21870 | 38.75063 | 26727 ft | 404 kts | 14° |
| 2026-04-17 13:58 | -8.19155 | 38.75781 | 26298 ft | 403 kts | 14° |
| 2026-04-17 13:58 | -8.13733 | 38.77206 | 25405 ft | 403 kts | 14° |
| 2026-04-17 13:58 | -8.11019 | 38.77914 | 24947 ft | 403 kts | 14° |
| 2026-04-17 13:59 | -8.05607 | 38.79331 | 24069 ft | 401 kts | 15° |
| 2026-04-17 13:59 | -8.02929 | 38.80034 | 23700 ft | 394 kts | 15° |
| 2026-04-17 13:59 | -8.00284 | 38.80728 | 23080 ft | 391 kts | 15° |
| 2026-04-17 14:00 | -7.97666 | 38.81416 | 22533 ft | 385 kts | 15° |
| 2026-04-17 14:00 | -7.95104 | 38.82090 | 22089 ft | 376 kts | 15° |
| 2026-04-17 14:00 | -7.92597 | 38.82749 | 21639 ft | 368 kts | 15° |
| 2026-04-17 14:00 | -7.90148 | 38.83393 | 21199 ft | 360 kts | 15° |
| 2026-04-17 14:01 | -7.87744 | 38.84021 | 20764 ft | 353 kts | 15° |
| 2026-04-17 14:01 | -7.85367 | 38.84642 | 20347 ft | 352 kts | 15° |
| 2026-04-17 14:01 | -7.83003 | 38.85261 | 19924 ft | 351 kts | 15° |
| 2026-04-17 14:01 | -7.80644 | 38.85882 | 19501 ft | 350 kts | 15° |
| 2026-04-17 14:02 | -7.78291 | 38.86504 | 19083 ft | 349 kts | 15° |
| 2026-04-17 14:02 | -7.75973 | 38.87115 | 18663 ft | 348 kts | 15° |
| 2026-04-17 14:02 | -7.73631 | 38.87731 | 18244 ft | 348 kts | 15° |
| 2026-04-17 14:02 | -7.71291 | 38.88345 | 17792 ft | 347 kts | 15° |
| 2026-04-17 14:03 | -7.68967 | 38.88954 | 17363 ft | 344 kts | 15° |
| 2026-04-17 14:03 | -7.66655 | 38.89560 | 16942 ft | 341 kts | 15° |
| 2026-04-17 14:03 | -7.64364 | 38.90158 | 16537 ft | 339 kts | 15° |
| 2026-04-17 14:03 | -7.62084 | 38.90752 | 16130 ft | 337 kts | 15° |
| 2026-04-17 14:04 | -7.59820 | 38.91342 | 15734 ft | 335 kts | 15° |
| 2026-04-17 14:04 | -7.57567 | 38.91931 | 15322 ft | 333 kts | 15° |
| 2026-04-17 14:04 | -7.55328 | 38.92519 | 14924 ft | 331 kts | 15° |
| 2026-04-17 14:04 | -7.53102 | 38.93102 | 14526 ft | 330 kts | 15° |
| 2026-04-17 14:05 | -7.50880 | 38.93680 | 14123 ft | 329 kts | 14° |
| 2026-04-17 14:05 | -7.48610 | 38.93932 | 13724 ft | 329 kts | 360° |
| 2026-04-17 14:05 | -7.46326 | 38.93725 | 13284 ft | 329 kts | 355° |
| 2026-04-17 14:05 | -7.44058 | 38.93478 | 12883 ft | 327 kts | 355° |
| 2026-04-17 14:06 | -7.41811 | 38.93235 | 12482 ft | 322 kts | 355° |
| 2026-04-17 14:06 | -7.39605 | 38.92998 | 12089 ft | 315 kts | 355° |
| 2026-04-17 14:06 | -7.37446 | 38.92764 | 11775 ft | 308 kts | 355° |
| 2026-04-17 14:06 | -7.35333 | 38.92534 | 11403 ft | 304 kts | 355° |
| 2026-04-17 14:07 | -7.33226 | 38.92308 | 11013 ft | 305 kts | 355° |
| 2026-04-17 14:07 | -7.31111 | 38.92081 | 10607 ft | 306 kts | 355° |
| 2026-04-17 14:07 | -7.29015 | 38.91858 | 10210 ft | 307 kts | 355° |
| 2026-04-17 14:07 | -7.26887 | 38.91630 | 9876 ft | 306 kts | 355° |
| 2026-04-17 14:08 | -7.24798 | 38.91406 | 9623 ft | 300 kts | 355° |
| 2026-04-17 14:08 | -7.22731 | 38.91183 | 9184 ft | 297 kts | 355° |
| 2026-04-17 14:08 | -7.20676 | 38.90962 | 8646 ft | 296 kts | 356° |
| 2026-04-17 14:08 | -7.18650 | 38.91012 | 8208 ft | 288 kts | 13° |
| 2026-04-17 14:09 | -7.16777 | 38.91663 | 7832 ft | 285 kts | 30° |
| 2026-04-17 14:09 | -7.15189 | 38.92833 | 7457 ft | 283 kts | 46° |
| 2026-04-17 14:09 | -7.13796 | 38.94236 | 7087 ft | 283 kts | 47° |
| 2026-04-17 14:09 | -7.12399 | 38.95641 | 6712 ft | 284 kts | 46° |
| 2026-04-17 14:10 | -7.11008 | 38.97035 | 6339 ft | 280 kts | 46° |
| 2026-04-17 14:10 | -7.09634 | 38.98408 | 5954 ft | 275 kts | 46° |
| 2026-04-17 14:10 | -7.08287 | 38.99757 | 5590 ft | 271 kts | 47° |
| 2026-04-17 14:10 | -7.06964 | 39.01081 | 5236 ft | 266 kts | 46° |
| 2026-04-17 14:11 | -7.05657 | 39.02379 | 4893 ft | 262 kts | 46° |
| 2026-04-17 14:11 | -7.04372 | 39.03662 | 4542 ft | 257 kts | 47° |
| 2026-04-17 14:11 | -7.03130 | 39.04907 | 4203 ft | 248 kts | 47° |
| 2026-04-17 14:11 | -7.01932 | 39.06110 | 3892 ft | 239 kts | 47° |
| 2026-04-17 14:12 | -7.00793 | 39.07252 | 3585 ft | 230 kts | 47° |
| 2026-04-17 14:12 | -6.99681 | 39.08362 | 3292 ft | 220 kts | 47° |
| 2026-04-17 14:12 | -6.98614 | 39.09430 | 3008 ft | 212 kts | 47° |
| 2026-04-17 14:13 | -6.96612 | 39.11433 | 2487 ft | 193 kts | 48° |
| 2026-04-17 14:13 | -6.95692 | 39.12355 | 2223 ft | 179 kts | 47° |
| 2026-04-17 14:13 | -6.94864 | 39.13181 | 2006 ft | 159 kts | 47° |
| 2026-04-17 14:13 | -6.94096 | 39.13946 | 1796 ft | 151 kts | 48° |
| 2026-04-17 14:14 | -6.93362 | 39.14682 | 1605 ft | 148 kts | 49° |
| 2026-04-17 14:14 | -6.92637 | 39.15410 | 1403 ft | 147 kts | 49° |
| 2026-04-17 14:14 | -6.91915 | 39.16132 | 1217 ft | 146 kts | 47° |
| 2026-04-17 14:14 | -6.91196 | 39.16851 | 1039 ft | 146 kts | 49° |
| 2026-04-17 14:15 | -6.90485 | 39.17574 | 812 ft | 145 kts | 50° |
| 2026-04-17 14:15 | -6.89796 | 39.18295 | 626 ft | 143 kts | 49° |
| 2026-04-17 14:15 | -6.89082 | 39.18999 | 425 ft | 146 kts | 48° |
| 2026-04-17 14:15 | -6.88355 | 39.19717 | 245 ft | 146 kts | 50° |
| 2026-04-17 14:16 | -6.87701 | 39.20382 | 182 ft | 114 kts | 45° |
| 2026-04-17 14:16 | -6.87257 | 39.20820 | 177 ft | 65 kts | 44° |
| 2026-04-17 14:16 | -6.86984 | 39.21089 | 176 ft | 39 kts | 44° |
| 2026-04-17 14:16 | -6.86831 | 39.21241 | 176 ft | 16 kts | 40° |
| 2026-04-17 14:17 | -6.86758 | 39.21250 | 178 ft | 7 kts | 332° |
| 2026-04-17 14:17 | -6.86729 | 39.21211 | 179 ft | 8 kts | 292° |
| 2026-04-17 14:17 | -6.86730 | 39.21150 | 178 ft | 10 kts | 260° |
| 2026-04-17 14:17 | -6.86720 | 39.21075 | 178 ft | 12 kts | 312° |
| 2026-04-17 14:18 | -6.86644 | 39.21089 | 180 ft | 13 kts | 44° |
| 2026-04-17 14:18 | -6.86579 | 39.21155 | 181 ft | 14 kts | 45° |
| 2026-04-17 14:18 | -6.86522 | 39.21191 | 181 ft | 8 kts | 331° |
| 2026-04-17 14:18 | -6.86493 | 39.21163 | 181 ft | 10 kts | 313° |
| 2026-04-17 14:19 | -6.86465 | 39.21134 | 181 ft | 0 kts | 314° |